Time;durP1;ratioP1;P1;durP2;ratioP2;P2;SDS_P1;SDS_P2;PMS_P1;PMS_P2;Temp;Humidity;BMP_temperature;BMP_pressure;BME280_temperature;BME280_humidity;BME280_pressure;Samples;Min_cycle;Max_cycle;Signal;HPM_P1;HPM_P2
2022/02/13 00:01:11;;;;;;;7.83;7.07;;;;;;;-4.83;100.00;97738.19;4965040;28;20613;-52
2022/02/13 00:03:39;;;;;;;7.33;6.73;;;;;;;-4.81;100.00;97738.94;4985988;28;20492;-48
2022/02/13 00:06:09;;;;;;;9.17;8.37;;;;;;;-4.86;100.00;97724.56;4981761;28;20483;-51
2022/02/13 00:08:37;;;;;;;7.87;7.07;;;;;;;-4.90;100.00;97729.06;4989577;28;20467;-49
2022/02/13 00:11:13;;;;;;;8.43;7.33;;;;;;;-4.93;100.00;97718.84;4941718;28;20475;-49
2022/02/13 00:13:43;;;;;;;8.23;7.50;;;;;;;-4.92;100.00;97725.72;4970365;28;20561;-50
2022/02/13 00:16:11;;;;;;;7.50;6.80;;;;;;;-4.93;100.00;97718.84;4968768;28;21197;-50
2022/02/13 00:18:39;;;;;;;8.73;7.50;;;;;;;-4.97;100.00;97715.56;4986579;28;21184;-47
2022/02/13 00:21:27;;;;;;;7.90;7.07;;;;;;;-5.00;100.00;97718.31;4982280;28;21059;-51
2022/02/13 00:23:56;;;;;;;7.77;6.77;;;;;;;-5.10;100.00;97720.50;4985871;28;20547;-50
2022/02/13 00:26:24;;;;;;;6.67;5.93;;;;;;;-5.08;100.00;97710.09;4948618;28;22204;-51
2022/02/13 00:28:53;;;;;;;7.67;6.80;;;;;;;-4.86;100.00;97707.31;4960256;28;20468;-55
2022/02/13 00:31:22;;;;;;;8.17;7.20;;;;;;;-4.90;100.00;97712.69;4985049;28;20874;-53
2022/02/13 00:33:51;;;;;;;8.13;7.03;;;;;;;-4.83;100.00;97706.31;4966630;28;20473;-48
2022/02/13 00:36:19;;;;;;;6.53;5.97;;;;;;;-4.75;100.00;97701.59;4986908;28;20827;-50
2022/02/13 00:38:47;;;;;;;6.60;6.00;;;;;;;-4.65;100.00;97701.97;4986019;28;20685;-47
2022/02/13 00:41:17;;;;;;;7.30;6.63;;;;;;;-4.58;100.00;97700.75;4948337;28;26037;-49
2022/02/13 00:43:45;;;;;;;7.33;6.70;;;;;;;-4.51;100.00;97699.56;4970837;28;20487;-51
2022/02/13 00:46:15;;;;;;;9.60;7.23;;;;;;;-4.58;100.00;97703.34;4979522;28;20471;-52
2022/02/13 00:48:43;;;;;;;7.37;6.67;;;;;;;-4.66;100.00;97696.00;4971659;28;20472;-51
2022/02/13 00:51:12;;;;;;;7.33;6.60;;;;;;;-4.63;100.00;97701.91;4982571;28;20631;-48
2022/02/13 00:53:40;;;;;;;6.90;6.20;;;;;;;-4.72;100.00;97703.19;4987832;28;20476;-47
2022/02/13 00:56:08;;;;;;;7.10;6.40;;;;;;;-4.78;100.00;97706.09;4943025;28;20532;-52
2022/02/13 00:58:36;;;;;;;8.00;7.30;;;;;;;-4.87;100.00;97704.78;4981343;28;20464;-48
2022/02/13 01:01:05;;;;;;;7.43;6.73;;;;;;;-4.97;100.00;97694.91;4967708;28;20475;-54
2022/02/13 01:03:35;;;;;;;8.43;7.73;;;;;;;-4.96;100.00;97699.16;4968119;28;20488;-48
2022/02/13 01:06:03;;;;;;;7.70;7.00;;;;;;;-5.01;100.00;97695.97;4981900;28;20521;-51
2022/02/13 01:08:32;;;;;;;7.87;7.17;;;;;;;-4.99;100.00;97701.91;4984830;28;20883;-47
2022/02/13 01:11:00;;;;;;;6.83;6.13;;;;;;;-4.96;100.00;97704.31;4983163;28;20456;-54
2022/02/13 01:13:29;;;;;;;7.67;6.80;;;;;;;-4.99;100.00;97706.22;4947074;28;21000;-51
2022/02/13 01:15:57;;;;;;;8.57;6.77;;;;;;;-5.10;100.00;97686.91;4965148;28;20965;-48
2022/02/13 01:18:27;;;;;;;7.93;6.77;;;;;;;-5.08;100.00;97694.59;4965816;28;21044;-49
2022/02/13 01:20:57;;;;;;;7.13;6.13;;;;;;;-4.90;100.00;97694.59;4986723;28;20473;-46
2022/02/13 01:23:25;;;;;;;6.87;6.27;;;;;;;-4.76;100.00;97684.41;4985324;28;20765;-51
2022/02/13 01:25:53;;;;;;;7.37;6.73;;;;;;;-4.73;100.00;97684.28;4984687;28;20494;-46
2022/02/13 01:28:21;;;;;;;7.80;6.03;;;;;;;-4.76;100.00;97686.16;4941623;28;21208;-51
2022/02/13 01:30:49;;;;;;;6.17;5.57;;;;;;;-4.79;100.00;97679.38;4979157;28;20526;-49
2022/02/13 01:33:18;;;;;;;8.30;5.97;;;;;;;-4.88;100.00;97680.69;4967878;28;20769;-46
2022/02/13 01:35:46;;;;;;;8.53;6.63;;;;;;;-4.93;100.00;97682.66;4983852;28;21044;-51
2022/02/13 01:38:15;;;;;;;7.30;6.53;;;;;;;-5.01;100.00;97679.59;4982326;28;20495;-51
2022/02/13 01:40:44;;;;;;;7.20;6.50;;;;;;;-5.03;100.00;97681.44;4985761;28;20515;-51
2022/02/13 01:43:12;;;;;;;6.63;6.13;;;;;;;-5.01;100.00;97680.47;4939216;28;26429;-51
2022/02/13 01:45:40;;;;;;;7.80;5.90;;;;;;;-4.83;100.00;97676.13;4982337;28;20468;-50
2022/02/13 01:48:08;;;;;;;6.57;6.07;;;;;;;-4.68;100.00;97679.72;4967362;28;20513;-50
2022/02/13 01:50:37;;;;;;;6.93;6.23;;;;;;;-4.55;100.00;97682.50;4985118;28;20468;-48
2022/02/13 01:53:06;;;;;;;6.97;6.27;;;;;;;-4.59;100.00;97680.97;4986272;28;20488;-52
2022/02/13 01:55:35;;;;;;;7.47;5.73;;;;;;;-4.50;100.00;97674.53;4985022;28;20567;-50
2022/02/13 01:58:05;;;;;;;6.57;5.93;;;;;;;-4.64;100.00;97667.44;4982429;28;20464;-46
2022/02/13 02:00:33;;;;;;;6.93;6.23;;;;;;;-4.57;100.00;97673.97;4946138;28;20535;-51
2022/02/13 02:03:01;;;;;;;6.83;5.73;;;;;;;-4.46;100.00;97673.44;4980696;28;20508;-49
2022/02/13 02:05:30;;;;;;;6.47;5.87;;;;;;;-4.48;100.00;97675.28;4968115;28;20545;-53
2022/02/13 02:07:58;;;;;;;7.33;5.70;;;;;;;-4.25;100.00;97668.91;4982271;28;20468;-47
2022/02/13 02:10:26;;;;;;;6.60;5.90;;;;;;;-4.23;100.00;97658.50;4986624;28;20463;-52
2022/02/13 02:12:56;;;;;;;6.50;6.00;;;;;;;-4.24;100.00;97660.25;4976821;28;20487;-49
2022/02/13 02:15:24;;;;;;;7.30;6.60;;;;;;;-4.01;100.00;97652.19;4945837;28;20464;-51
2022/02/13 02:17:52;;;;;;;6.30;5.80;;;;;;;-4.04;100.00;97654.94;4979650;28;20484;-49
2022/02/13 02:20:21;;;;;;;7.00;6.30;;;;;;;-3.87;100.00;97654.91;4967431;28;20573;-49
2022/02/13 02:22:50;;;;;;;6.37;5.77;;;;;;;-3.96;100.00;97658.81;4982427;28;20479;-51
2022/02/13 02:25:20;;;;;;;6.03;5.63;;;;;;;-3.96;100.00;97653.63;4984763;28;21051;-51
2022/02/13 02:27:48;;;;;;;7.00;5.90;;;;;;;-3.92;100.00;97657.72;4984007;28;20463;-51
2022/02/13 02:30:16;;;;;;;5.93;5.43;;;;;;;-3.90;100.00;97655.06;4984867;28;20635;-48
2022/02/13 02:32:45;;;;;;;6.00;5.40;;;;;;;-3.82;100.00;97654.63;4943022;28;20237;-48
2022/02/13 02:35:13;;;;;;;6.93;5.80;;;;;;;-3.73;100.00;97655.91;4964527;28;20613;-50
2022/02/13 02:37:41;;;;;;;6.13;5.53;;;;;;;-3.76;100.00;97654.34;4979285;28;20464;-51
2022/02/13 02:40:10;;;;;;;6.23;5.73;;;;;;;-3.72;100.00;97650.66;4982449;28;20680;-45
2022/02/13 02:42:41;;;;;;;6.27;5.67;;;;;;;-3.69;100.00;97654.81;4985618;28;20437;-48
2022/02/13 02:45:28;;;;;;;8.07;6.40;;;;;;;-3.63;100.00;97638.94;4966597;28;21058;-48
2022/02/13 02:47:56;;;;;;;6.17;5.63;;;;;;;-3.57;100.00;97638.63;4940649;28;20771;-49
2022/02/13 02:50:24;;;;;;;6.97;6.07;;;;;;;-3.59;100.00;97637.88;4983904;28;20515;-48
2022/02/13 02:52:53;;;;;;;6.40;5.80;;;;;;;-3.52;100.00;97634.03;4961210;28;20773;-51
2022/02/13 02:55:21;;;;;;;6.43;5.73;;;;;;;-3.69;100.00;97639.28;4981041;28;20243;-52
2022/02/13 02:57:50;;;;;;;9.10;5.93;;;;;;;-3.73;100.00;97633.44;4983046;28;20728;-54
2022/02/13 03:00:19;;;;;;;6.30;5.70;;;;;;;-3.83;100.00;97635.69;4983800;28;20287;-49
2022/02/13 03:02:47;;;;;;;6.60;5.90;;;;;;;-3.79;100.00;97638.94;4937099;28;21041;-51
2022/02/13 03:05:15;;;;;;;6.27;5.60;;;;;;;-3.83;100.00;97633.09;4980961;28;20543;-48
2022/02/13 03:07:43;;;;;;;5.70;5.20;;;;;;;-3.84;100.00;97638.34;4958466;28;20815;-50
2022/02/13 03:10:11;;;;;;;6.27;5.20;;;;;;;-3.96;100.00;97640.69;4977342;28;20467;-50
2022/02/13 03:12:39;;;;;;;6.40;5.57;;;;;;;-3.81;100.00;97633.00;4981856;28;20543;-47
2022/02/13 03:15:09;;;;;;;5.97;5.37;;;;;;;-3.72;100.00;97637.69;4982474;28;20557;-48
2022/02/13 03:17:37;;;;;;;6.90;5.70;;;;;;;-3.73;100.00;97637.78;4982180;28;20503;-48
2022/02/13 03:20:06;;;;;;;5.60;5.20;;;;;;;-3.85;100.00;97650.47;4942093;28;20213;-50
2022/02/13 03:22:34;;;;;;;6.37;5.77;;;;;;;-3.84;100.00;97644.38;4961270;28;20512;-48
2022/02/13 03:25:03;;;;;;;6.87;5.50;;;;;;;-3.89;100.00;97641.19;4985953;28;20235;-50
2022/02/13 03:27:31;;;;;;;6.47;5.87;;;;;;;-3.93;100.00;97643.09;4986054;28;20467;-49
2022/02/13 03:29:59;;;;;;;5.60;5.17;;;;;;;-3.99;100.00;97645.19;4981012;28;20575;-51
2022/02/13 03:32:29;;;;;;;5.27;4.87;;;;;;;-4.09;100.00;97632.72;4983092;28;20492;-49
2022/02/13 03:34:58;;;;;;;6.43;5.23;;;;;;;-4.05;100.00;97637.75;4940349;28;20732;-51
2022/02/13 03:37:26;;;;;;;8.47;6.33;;;;;;;-4.00;100.00;97617.63;4987452;28;20665;-49
2022/02/13 03:39:54;;;;;;;6.47;5.87;;;;;;;-3.90;100.00;97631.75;4969197;28;21116;-53
2022/02/13 03:42:22;;;;;;;6.23;5.73;;;;;;;-3.92;100.00;97629.25;4987145;28;20570;-53
2022/02/13 03:44:51;;;;;;;6.37;5.83;;;;;;;-4.01;100.00;97634.06;4983225;28;20822;-52
2022/02/13 03:47:19;;;;;;;6.87;6.17;;;;;;;-3.97;100.00;97630.44;4989809;28;20299;-52
2022/02/13 03:49:48;;;;;;;5.83;5.33;;;;;;;-3.97;100.00;97627.84;4937358;28;21769;-49
2022/02/13 03:52:16;;;;;;;6.17;5.67;;;;;;;-4.02;100.00;97632.41;4984674;28;20545;-48
2022/02/13 03:54:44;;;;;;;6.27;5.37;;;;;;;-4.10;100.00;97631.06;4963836;28;20857;-50
2022/02/13 03:57:13;;;;;;;6.17;5.67;;;;;;;-3.98;100.00;97631.31;4983844;28;20547;-52
2022/02/13 03:59:41;;;;;;;6.53;6.00;;;;;;;-4.16;100.00;97633.16;4988352;28;20241;-50
2022/02/13 04:02:09;;;;;;;5.27;4.77;;;;;;;-4.21;100.00;97638.56;4981489;28;20566;-49
2022/02/13 04:04:37;;;;;;;6.50;5.87;;;;;;;-4.25;100.00;97637.88;4991035;28;20492;-50
2022/02/13 04:07:07;;;;;;;7.80;5.83;;;;;;;-4.13;100.00;97628.63;4938032;28;20656;-51
2022/02/13 04:09:35;;;;;;;7.83;6.77;;;;;;;-4.12;100.00;97635.47;4966877;28;20476;-52
2022/02/13 04:12:04;;;;;;;6.10;5.50;;;;;;;-4.25;100.00;97632.69;4981994;28;21042;-47
2022/02/13 04:14:32;;;;;;;5.83;5.33;;;;;;;-4.21;100.00;97633.38;4990536;28;20521;-51
2022/02/13 04:17:00;;;;;;;8.20;6.40;;;;;;;-4.32;100.00;97639.13;4984867;28;21234;-48
2022/02/13 04:19:28;;;;;;;6.00;5.50;;;;;;;-4.34;100.00;97645.31;4987131;28;20547;-51
2022/02/13 04:21:57;;;;;;;6.63;6.03;;;;;;;-4.30;100.00;97633.88;4936663;28;20855;-47
2022/02/13 04:24:26;;;;;;;6.97;6.37;;;;;;;-4.39;100.00;97641.16;4982307;28;20930;-50
2022/02/13 04:26:54;;;;;;;5.93;5.43;;;;;;;-4.41;100.00;97637.00;4962150;28;20563;-48
2022/02/13 04:29:22;;;;;;;7.80;6.00;;;;;;;-4.47;100.00;97634.75;4984498;28;21016;-50
2022/02/13 04:31:51;;;;;;;6.17;5.57;;;;;;;-4.51;100.00;97641.81;4983326;28;20494;-48
2022/02/13 04:34:24;;;;;;;6.73;6.03;;;;;;;-4.43;100.00;97636.25;4988402;28;20543;-52
2022/02/13 04:36:53;;;;;;;5.97;5.40;;;;;;;-4.42;100.00;97630.16;4938037;28;20508;-48
2022/02/13 04:39:23;;;;;;;6.80;6.20;;;;;;;-4.58;100.00;97641.28;4990030;28;20491;-48
2022/02/13 04:41:52;;;;;;;7.67;6.00;;;;;;;-4.71;100.00;97635.06;4965739;28;20520;-50
2022/02/13 04:44:20;;;;;;;6.80;5.87;;;;;;;-4.57;100.00;97637.78;4982624;28;20460;-49
2022/02/13 04:46:49;;;;;;;6.50;5.90;;;;;;;-4.38;100.00;97632.50;4982996;28;20222;-47
2022/02/13 04:49:17;;;;;;;6.90;6.17;;;;;;;-4.45;100.00;97630.31;4983256;28;20488;-51
2022/02/13 04:51:45;;;;;;;6.10;5.60;;;;;;;-4.43;100.00;97634.47;4942792;28;20487;-49
2022/02/13 04:54:13;;;;;;;6.00;5.57;;;;;;;-4.62;100.00;97629.41;4985423;28;20495;-53
2022/02/13 04:56:41;;;;;;;9.00;6.43;;;;;;;-4.63;100.00;97626.94;4986355;28;20319;-50
2022/02/13 04:59:11;;;;;;;6.43;5.83;;;;;;;-4.59;100.00;97631.03;4962335;28;21066;-49
2022/02/13 05:01:39;;;;;;;6.33;5.83;;;;;;;-4.55;100.00;97625.59;4984900;28;20452;-49
2022/02/13 05:04:07;;;;;;;6.60;6.00;;;;;;;-4.54;100.00;97616.09;4984969;28;20717;-48
2022/02/13 05:06:35;;;;;;;6.17;5.63;;;;;;;-4.43;100.00;97618.16;4985159;28;20582;-47
2022/02/13 05:09:03;;;;;;;6.20;5.70;;;;;;;-4.47;100.00;97617.44;4933299;28;20687;-47
2022/02/13 05:11:32;;;;;;;6.67;5.90;;;;;;;-4.60;100.00;97617.25;4957223;28;20465;-51
2022/02/13 05:14:02;;;;;;;8.50;6.30;;;;;;;-4.73;100.00;97616.19;4966927;28;20570;-51
2022/02/13 05:16:31;;;;;;;6.80;6.07;;;;;;;-4.55;100.00;97614.44;4973804;28;20792;-51
2022/02/13 05:18:59;;;;;;;7.30;6.60;;;;;;;-4.60;100.00;97604.31;4991387;28;20501;-50
2022/02/13 05:21:28;;;;;;;6.50;5.90;;;;;;;-4.73;100.00;97605.88;4979859;28;20544;-46
2022/02/13 05:23:56;;;;;;;6.50;5.93;;;;;;;-4.82;100.00;97601.97;4940009;28;20906;-51
2022/02/13 05:26:24;;;;;;;6.43;5.83;;;;;;;-4.71;100.00;97583.34;4975430;28;20574;-47
2022/02/13 05:28:54;;;;;;;7.07;6.50;;;;;;;-4.63;100.00;97596.72;4967718;28;20463;-48
2022/02/13 05:31:26;;;;;;;7.73;6.80;;;;;;;-4.67;100.00;97590.88;4978198;28;21046;-50
2022/02/13 05:33:55;;;;;;;6.57;5.97;;;;;;;-4.54;100.00;97596.25;4989385;28;21047;-51
2022/02/13 05:36:24;;;;;;;7.37;6.63;;;;;;;-4.45;100.00;97591.53;4985072;28;20971;-48
2022/02/13 05:38:52;;;;;;;8.23;6.37;;;;;;;-4.53;100.00;97602.25;4943617;28;20539;-49
2022/02/13 05:41:20;;;;;;;6.97;6.40;;;;;;;-4.63;100.00;97603.66;4977830;28;20560;-50
2022/02/13 05:43:48;;;;;;;6.73;6.23;;;;;;;-4.63;100.00;97607.06;4963109;28;20495;-50
2022/02/13 05:46:19;;;;;;;8.37;7.37;;;;;;;-4.58;100.00;97607.66;4982646;28;20499;-47
2022/02/13 05:48:48;;;;;;;7.57;6.97;;;;;;;-4.64;100.00;97610.56;4989598;28;20543;-49
2022/02/13 05:51:17;;;;;;;7.17;6.53;;;;;;;-4.72;100.00;97608.38;4980923;28;20464;-50
2022/02/13 05:53:45;;;;;;;9.33;7.10;;;;;;;-4.74;100.00;97611.94;4965777;28;20577;-49
2022/02/13 05:56:14;;;;;;;8.93;7.33;;;;;;;-4.82;100.00;97614.91;4941322;28;20844;-49
2022/02/13 05:58:46;;;;;;;9.13;7.27;;;;;;;-4.82;100.00;97608.00;4985128;28;20486;-53
2022/02/13 06:01:15;;;;;;;7.83;6.53;;;;;;;-4.84;100.00;97617.59;4959443;28;20919;-49
2022/02/13 06:03:43;;;;;;;7.50;6.83;;;;;;;-4.90;100.00;97624.81;4978947;28;20531;-53
2022/02/13 06:06:11;;;;;;;8.07;7.37;;;;;;;-4.99;100.00;97616.59;4984316;28;20485;-48
2022/02/13 06:08:41;;;;;;;11.07;8.03;;;;;;;-4.96;100.00;97621.63;4984884;28;20719;-52
2022/02/13 06:11:11;;;;;;;8.07;7.30;;;;;;;-5.00;100.00;97624.41;4936374;28;21077;-53
2022/02/13 06:13:39;;;;;;;7.07;6.37;;;;;;;-4.90;100.00;97619.63;4977348;28;20516;-53
2022/02/13 06:16:07;;;;;;;7.87;7.07;;;;;;;-4.92;100.00;97621.47;4963612;28;21153;-45
2022/02/13 06:18:36;;;;;;;9.82;8.75;;;;;;;-4.90;100.00;97623.06;4949701;28;20472;-48
2022/02/13 06:21:05;;;;;;;8.30;6.50;;;;;;;-4.90;100.00;97611.88;4982346;28;20236;-47
2022/02/13 06:23:33;;;;;;;7.77;6.97;;;;;;;-4.96;100.00;97624.19;4958770;28;20627;-49
2022/02/13 06:26:03;;;;;;;8.17;7.37;;;;;;;-4.97;100.00;97616.50;4915791;28;21488;-47
2022/02/13 06:28:32;;;;;;;8.50;7.13;;;;;;;-4.87;100.00;97612.56;4960800;28;20484;-49
2022/02/13 06:31:00;;;;;;;8.03;7.33;;;;;;;-4.92;100.00;97619.72;4957120;28;21291;-53
2022/02/13 06:33:29;;;;;;;8.70;7.30;;;;;;;-5.02;100.00;97621.06;4987824;28;20482;-49
2022/02/13 06:35:57;;;;;;;7.87;6.97;;;;;;;-4.87;100.00;97622.91;4983417;28;20827;-49
2022/02/13 06:38:25;;;;;;;7.70;6.93;;;;;;;-4.79;100.00;97617.34;4987572;28;20527;-51
2022/02/13 06:40:54;;;;;;;7.23;6.53;;;;;;;-4.86;100.00;97621.16;4920839;28;23621;-48
2022/02/13 06:43:23;;;;;;;7.07;6.47;;;;;;;-4.86;100.00;97619.41;4978692;28;20520;-50
2022/02/13 06:45:51;;;;;;;8.13;6.43;;;;;;;-4.71;100.00;97619.53;4967126;28;20860;-49
2022/02/13 06:48:20;;;;;;;7.83;7.23;;;;;;;-4.76;100.00;97619.78;4984258;28;20545;-50
2022/02/13 06:50:48;;;;;;;7.73;7.03;;;;;;;-4.73;100.00;97617.06;4982842;28;20503;-47
2022/02/13 06:53:16;;;;;;;9.37;6.73;;;;;;;-4.76;100.00;97621.53;4984299;28;20516;-49
2022/02/13 06:55:44;;;;;;;7.10;6.50;;;;;;;-4.69;100.00;97628.06;4974690;28;20552;-48
2022/02/13 06:58:12;;;;;;;7.57;6.87;;;;;;;-4.61;100.00;97622.50;4935748;28;20589;-53
2022/02/13 07:00:42;;;;;;;7.37;6.63;;;;;;;-4.54;100.00;97622.13;4976906;28;20487;-54
2022/02/13 07:03:10;;;;;;;7.30;6.63;;;;;;;-4.33;100.00;97627.09;4954461;28;20924;-48
2022/02/13 07:05:39;;;;;;;8.87;6.00;;;;;;;-4.17;100.00;97621.94;4982402;28;20550;-48
2022/02/13 07:08:07;;;;;;;7.87;7.17;;;;;;;-4.01;100.00;97615.94;4984613;28;21003;-48
2022/02/13 07:10:36;;;;;;;8.07;6.80;;;;;;;-3.88;100.00;97611.81;4987988;28;21098;-49
2022/02/13 07:13:06;;;;;;;7.67;6.90;;;;;;;-3.87;100.00;97615.22;4933324;28;20497;-53
2022/02/13 07:15:35;;;;;;;7.40;6.70;;;;;;;-3.70;100.00;97609.13;4965551;28;21079;-53
2022/02/13 07:18:05;;;;;;;7.43;6.83;;;;;;;-3.78;100.00;97610.38;4962132;28;20467;-53
2022/02/13 07:20:33;;;;;;;7.57;6.83;;;;;;;-3.65;100.00;97607.09;4982015;28;20229;-53
2022/02/13 07:23:02;;;;;;;8.63;7.37;;;;;;;-3.64;100.00;97607.03;4988049;28;20252;-49
2022/02/13 07:25:30;;;;;;;8.17;7.27;;;;;;;-3.68;100.00;97608.13;4984964;28;20209;-51
2022/02/13 07:27:59;;;;;;;8.27;7.57;;;;;;;-3.58;100.00;97600.69;4948735;28;20502;-48
2022/02/13 07:30:27;;;;;;;8.00;6.80;;;;;;;-3.47;100.00;97601.84;4980003;28;20537;-47
2022/02/13 07:32:55;;;;;;;6.97;6.27;;;;;;;-3.58;100.00;97597.25;4972806;28;20809;-48
2022/02/13 07:35:25;;;;;;;7.47;6.47;;;;;;;-3.56;100.00;97598.84;4974956;28;20598;-46
2022/02/13 07:37:53;;;;;;;7.20;6.60;;;;;;;-3.62;100.00;97581.03;4987881;28;20474;-51
2022/02/13 07:40:21;;;;;;;7.67;6.97;;;;;;;-3.50;100.00;97590.72;4981061;28;20539;-45
2022/02/13 07:42:49;;;;;;;7.53;6.73;;;;;;;-3.35;100.00;97589.03;4987060;28;21070;-48
2022/02/13 07:45:17;;;;;;;7.20;6.60;;;;;;;-3.10;100.00;97597.16;4960051;28;20503;-51
2022/02/13 07:47:46;;;;;;;8.67;7.77;;;;;;;-3.02;100.00;97592.38;5004370;28;20777;-53
2022/02/13 07:50:14;;;;;;;7.70;7.00;;;;;;;-2.91;100.00;97589.16;4988117;28;20558;-52
2022/02/13 07:52:44;;;;;;;8.47;7.63;;;;;;;-2.82;100.00;97590.38;5003674;28;20552;-52
2022/02/13 07:55:13;;;;;;;7.80;7.03;;;;;;;-2.67;100.00;97583.44;5004205;28;20453;-52
2022/02/13 07:57:41;;;;;;;9.77;7.83;;;;;;;-2.55;100.00;97585.31;4992966;28;20903;-56
2022/02/13 08:00:11;;;;;;;7.73;6.93;;;;;;;-2.51;100.00;97585.94;4964473;28;20927;-53
2022/02/13 08:02:40;;;;;;;7.13;6.47;;;;;;;-2.21;100.00;97585.03;5009570;28;20883;-56
2022/02/13 08:05:09;;;;;;;9.83;8.93;;;;;;;-2.27;100.00;97586.25;4991575;28;20626;-52
2022/02/13 08:07:46;;;;;;;10.90;9.80;;;;;;;-1.89;100.00;97577.00;4987558;28;20234;-53
2022/02/13 08:10:15;;;;;;;8.73;7.00;;;;;;;-1.92;100.00;97574.59;5002439;28;20466;-52
2022/02/13 08:12:43;;;;;;;6.50;6.00;;;;;;;-1.78;100.00;97569.38;4996126;28;20221;-56
2022/02/13 08:15:12;;;;;;;6.90;6.27;;;;;;;-1.82;100.00;97575.69;4959507;28;20339;-52
2022/02/13 08:17:40;;;;;;;7.20;6.63;;;;;;;-1.61;100.00;97573.50;5001538;28;20549;-55
2022/02/13 08:20:13;;;;;;;6.63;6.13;;;;;;;-1.56;100.00;97573.22;4991030;28;20244;-56
2022/02/13 08:22:42;;;;;;;6.30;5.70;;;;;;;-1.20;100.00;97571.78;5003998;28;20280;-51
2022/02/13 08:25:11;;;;;;;7.13;6.53;;;;;;;-1.17;100.00;97574.16;5006954;28;20212;-49
2022/02/13 08:27:40;;;;;;;6.63;6.00;;;;;;;-1.00;100.00;97574.00;5003667;28;20310;-50
2022/02/13 08:30:09;;;;;;;6.40;5.80;;;;;;;-0.86;100.00;97568.69;4960857;28;20221;-55
2022/02/13 08:32:37;;;;;;;6.57;6.03;;;;;;;-0.81;100.00;97573.59;5010929;28;20481;-52
2022/02/13 08:35:06;;;;;;;7.67;6.07;;;;;;;-0.48;100.00;97565.28;5002088;28;20892;-50
2022/02/13 08:37:35;;;;;;;8.20;7.47;;;;;;;-0.47;100.00;97566.94;4996136;28;20826;-53
2022/02/13 08:40:04;;;;;;;5.90;5.47;;;;;;;-0.31;100.00;97564.09;5009721;28;20338;-47
2022/02/13 08:42:33;;;;;;;6.70;6.10;;;;;;;-0.21;100.00;97561.72;5000112;28;20534;-53
2022/02/13 08:45:03;;;;;;;7.53;5.87;;;;;;;0.02;100.00;97548.00;5003015;28;21276;-51
2022/02/13 08:47:33;;;;;;;5.13;4.73;;;;;;;0.18;100.00;97551.19;4979037;28;20487;-53
2022/02/13 08:50:01;;;;;;;5.10;4.70;;;;;;;0.18;100.00;97551.19;5004652;28;20236;-52
2022/02/13 08:52:30;;;;;;;5.57;4.97;;;;;;;0.29;100.00;97553.03;4990390;28;20532;-53
2022/02/13 08:54:58;;;;;;;5.17;4.77;;;;;;;0.18;100.00;97539.94;5007450;28;20237;-49
2022/02/13 08:57:26;;;;;;;5.50;5.00;;;;;;;0.47;100.00;97548.25;5001234;28;20299;-50
2022/02/13 08:59:55;;;;;;;5.43;4.93;;;;;;;0.52;100.00;97548.75;5003991;28;20619;-51
2022/02/13 09:02:24;;;;;;;6.47;5.60;;;;;;;0.72;100.00;97549.09;4962474;28;20571;-56
2022/02/13 09:04:52;;;;;;;5.57;5.07;;;;;;;0.88;100.00;97547.94;5003186;28;20241;-56
2022/02/13 09:07:20;;;;;;;5.37;4.87;;;;;;;1.00;100.00;97542.63;4981631;28;20253;-48
2022/02/13 09:09:48;;;;;;;4.97;4.57;;;;;;;0.86;100.00;97548.06;5005373;28;20247;-51
2022/02/13 09:12:19;;;;;;;5.90;5.30;;;;;;;0.96;100.00;97543.00;5000912;28;20643;-50
2022/02/13 09:14:47;;;;;;;5.40;4.90;;;;;;;1.15;100.00;97540.66;5004019;28;20319;-54
2022/02/13 09:17:19;;;;;;;4.70;4.40;;;;;;;1.18;100.00;97536.16;4959659;28;20220;-53
2022/02/13 09:19:47;;;;;;;4.90;4.57;;;;;;;1.16;100.00;97536.28;5002653;28;20209;-52
2022/02/13 09:22:15;;;;;;;4.73;4.07;;;;;;;1.35;100.00;97533.13;4982728;28;20297;-55
2022/02/13 09:24:43;;;;;;;4.80;4.40;;;;;;;1.54;100.00;97534.28;5009086;28;20204;-53
2022/02/13 09:27:12;;;;;;;4.47;4.07;;;;;;;1.63;100.00;97536.19;4966445;28;20821;-52
2022/02/13 09:29:40;;;;;;;5.80;4.30;;;;;;;1.69;100.00;97527.06;5006638;28;20283;-54
2022/02/13 09:32:10;;;;;;;5.30;4.27;;;;;;;1.78;100.00;97526.34;4965770;28;20241;-53
2022/02/13 09:34:39;;;;;;;4.90;4.47;;;;;;;1.87;100.00;97517.75;5002067;28;20295;-56
2022/02/13 09:37:07;;;;;;;4.27;3.97;;;;;;;1.77;100.00;97514.22;4984909;28;20236;-53
2022/02/13 09:39:36;;;;;;;4.97;4.50;;;;;;;1.95;100.00;97511.94;5000828;28;20241;-55
2022/02/13 09:42:05;;;;;;;4.47;4.17;;;;;;;2.09;100.00;97503.00;4981231;28;20498;-52
2022/02/13 09:44:34;;;;;;;4.47;4.10;;;;;;;2.31;100.00;97502.09;4990888;28;20306;-52
2022/02/13 09:47:02;;;;;;;4.83;4.40;;;;;;;2.11;100.00;97500.28;4962706;28;20424;-53
2022/02/13 09:49:30;;;;;;;5.90;4.23;;;;;;;2.27;100.00;97500.69;5005308;28;20228;-54
2022/02/13 09:52:01;;;;;;;5.33;4.93;;;;;;;2.30;100.00;97491.78;5001092;28;20513;-51
2022/02/13 09:54:29;;;;;;;4.53;4.23;;;;;;;2.30;100.00;97492.59;4960305;28;20330;-53
2022/02/13 09:57:59;;;;;;;4.23;3.87;;;;;;;2.39;100.00;97492.81;5004773;28;20239;-51
2022/02/13 09:59:54;;;;;;;4.87;4.37;;;;;;;2.51;100.00;97497.06;5005158;28;20236;-52
2022/02/13 10:02:33;;;;;;;4.23;3.93;;;;;;;2.49;100.00;97492.91;4959945;28;20224;-50
2022/02/13 10:05:01;;;;;;;3.63;3.33;;;;;;;2.55;100.00;97488.00;5000829;28;20294;-49
2022/02/13 10:07:34;;;;;;;3.93;3.73;;;;;;;2.64;100.00;97482.97;5000229;28;20709;-52
2022/02/13 10:10:04;;;;;;;3.73;3.43;;;;;;;2.67;100.00;97472.25;4981165;28;20215;-48
2022/02/13 10:12:39;;;;;;;4.63;4.23;;;;;;;2.72;100.00;97481.38;5001533;28;20262;-55
2022/02/13 10:15:24;;;;;;;3.90;3.60;;;;;;;2.99;100.00;97480.03;4985439;28;20580;-49
2022/02/13 10:17:57;;;;;;;3.10;2.90;;;;;;;3.02;100.00;97486.81;4961815;28;20594;-57
2022/02/13 10:20:29;;;;;;;3.63;3.43;;;;;;;3.07;100.00;97471.53;4996178;28;20472;-55
2022/02/13 10:23:04;;;;;;;3.40;3.13;;;;;;;3.13;100.00;97472.81;5000020;28;20577;-52
2022/02/13 10:25:32;;;;;;;3.50;3.20;;;;;;;3.16;100.00;97473.38;4978070;28;20918;-53
2022/02/13 10:28:01;;;;;;;4.20;3.80;;;;;;;3.12;100.00;97469.34;5003043;28;20255;-52
2022/02/13 10:30:37;;;;;;;3.43;3.23;;;;;;;3.22;100.00;97472.03;4982582;28;20413;-49
2022/02/13 10:33:22;;;;;;;3.50;3.20;;;;;;;3.21;100.00;97465.13;4977491;28;20661;-54
2022/02/13 10:36:10;;;;;;;3.13;2.93;;;;;;;3.30;100.00;97458.28;5006437;28;20287;-55
2022/02/13 10:38:41;;;;;;;3.40;3.20;;;;;;;3.21;100.00;97453.81;5002152;28;20877;-53
2022/02/13 10:41:14;;;;;;;4.30;3.97;;;;;;;3.18;100.00;97444.44;4984862;28;20221;-54
2022/02/13 10:43:53;;;;;;;3.30;3.10;;;;;;;3.37;100.00;97446.31;4990279;28;20729;-54
2022/02/13 10:46:23;;;;;;;5.17;3.80;;;;;;;3.45;100.00;97441.25;4984059;28;20233;-51
2022/02/13 10:48:52;;;;;;;5.73;4.40;;;;;;;3.31;100.00;97439.00;5006230;28;20800;-52
2022/02/13 10:51:22;;;;;;;3.77;3.57;;;;;;;3.54;100.00;97439.63;4969340;28;20212;-52
2022/02/13 10:53:53;;;;;;;4.00;3.73;;;;;;;3.59;100.00;97445.28;5005614;28;20316;-54
2022/02/13 10:56:22;;;;;;;4.70;4.10;;;;;;;3.61;100.00;97432.88;4971864;28;20201;-53
2022/02/13 10:58:55;;;;;;;4.50;4.10;;;;;;;3.59;100.00;97423.47;4990181;28;20208;-50
2022/02/13 11:01:26;;;;;;;3.47;3.17;;;;;;;3.58;98.13;97427.06;5004071;28;20297;-50
2022/02/13 11:04:03;;;;;;;4.17;3.87;;;;;;;3.41;100.00;97418.06;5001398;28;20685;-54
2022/02/13 11:06:32;;;;;;;3.80;3.60;;;;;;;3.57;100.00;97418.38;4964706;28;20266;-50
2022/02/13 11:09:09;;;;;;;4.13;3.83;;;;;;;3.62;100.00;97412.75;4980742;28;20224;-50
2022/02/13 11:11:44;;;;;;;4.53;4.23;;;;;;;3.70;100.00;97405.03;4974469;28;20215;-55
2022/02/13 11:14:25;;;;;;;4.23;3.83;;;;;;;3.53;100.00;97401.28;4972401;28;20212;-57
2022/02/13 11:16:54;;;;;;;4.50;4.20;;;;;;;3.57;100.00;97400.06;4987562;28;20240;-54
2022/02/13 11:19:22;;;;;;;3.97;3.70;;;;;;;3.61;100.00;97392.75;4988947;28;20363;-52
2022/02/13 11:21:51;;;;;;;4.43;4.13;;;;;;;3.76;100.00;97393.19;4959917;28;20696;-53
2022/02/13 11:24:32;;;;;;;4.20;3.90;;;;;;;3.91;100.00;97386.59;5001091;28;20296;-52
2022/02/13 11:27:02;;;;;;;3.80;3.47;;;;;;;3.79;100.00;97381.59;4968626;28;20204;-52
2022/02/13 11:29:51;;;;;;;4.00;3.63;;;;;;;3.76;100.00;97372.22;4979602;28;20227;-52
2022/02/13 11:32:36;;;;;;;4.10;3.70;;;;;;;3.69;100.00;97369.31;4995127;28;20278;-56
2022/02/13 11:35:06;;;;;;;4.43;3.43;;;;;;;3.70;100.00;97372.75;4987154;28;20232;-59
2022/02/13 11:37:42;;;;;;;4.03;3.73;;;;;;;3.91;100.00;97377.88;4958071;28;20295;-52